sensor_id;sensor_type;location;lat;lon;timestamp;pressure;altitude;pressure_sealevel;temperature;humidity
59170;BME280;52474;52.236;5.114;2023-01-30T00:00:53;101761.03;;;5.52;100.00
59170;BME280;52474;52.236;5.114;2023-01-30T00:03:20;101770.22;;;5.60;100.00
59170;BME280;52474;52.236;5.114;2023-01-30T00:05:46;101742.41;;;5.56;100.00
59170;BME280;52474;52.236;5.114;2023-01-30T00:08:12;101752.16;;;5.72;100.00
59170;BME280;52474;52.236;5.114;2023-01-30T00:10:37;101731.91;;;5.74;100.00
59170;BME280;52474;52.236;5.114;2023-01-30T00:13:03;101718.66;;;5.75;100.00
59170;BME280;52474;52.236;5.114;2023-01-30T00:15:29;101730.78;;;5.78;100.00
59170;BME280;52474;52.236;5.114;2023-01-30T00:17:55;101733.03;;;5.86;100.00
59170;BME280;52474;52.236;5.114;2023-01-30T00:20:21;101734.75;;;5.87;100.00
59170;BME280;52474;52.236;5.114;2023-01-30T00:22:46;101730.34;;;5.87;100.00
59170;BME280;52474;52.236;5.114;2023-01-30T00:25:12;101720.44;;;5.92;100.00
59170;BME280;52474;52.236;5.114;2023-01-30T00:27:38;101718.69;;;6.26;100.00
59170;BME280;52474;52.236;5.114;2023-01-30T00:30:04;101726.13;;;6.51;100.00
59170;BME280;52474;52.236;5.114;2023-01-30T00:32:32;101706.91;;;6.49;100.00
59170;BME280;52474;52.236;5.114;2023-01-30T00:34:58;101710.75;;;6.59;100.00
59170;BME280;52474;52.236;5.114;2023-01-30T00:37:23;101712.47;;;6.60;100.00
59170;BME280;52474;52.236;5.114;2023-01-30T00:39:49;101704.31;;;6.65;100.00
59170;BME280;52474;52.236;5.114;2023-01-30T00:42:15;101681.13;;;6.56;100.00
59170;BME280;52474;52.236;5.114;2023-01-30T00:44:59;101653.19;;;6.37;100.00
59170;BME280;52474;52.236;5.114;2023-01-30T00:47:44;101693.53;;;6.70;100.00
59170;BME280;52474;52.236;5.114;2023-01-30T00:50:10;101713.81;;;6.68;100.00
59170;BME280;52474;52.236;5.114;2023-01-30T00:52:35;101697.09;;;6.69;100.00
59170;BME280;52474;52.236;5.114;2023-01-30T00:55:02;101690.03;;;6.69;100.00
59170;BME280;52474;52.236;5.114;2023-01-30T00:57:28;101689.00;;;6.72;100.00
59170;BME280;52474;52.236;5.114;2023-01-30T00:59:53;101677.38;;;6.76;100.00
59170;BME280;52474;52.236;5.114;2023-01-30T01:02:19;101649.13;;;6.63;100.00
59170;BME280;52474;52.236;5.114;2023-01-30T01:04:45;101649.81;;;6.67;100.00
59170;BME280;52474;52.236;5.114;2023-01-30T01:07:12;101652.34;;;6.69;100.00
59170;BME280;52474;52.236;5.114;2023-01-30T01:09:38;101641.81;;;6.69;100.00
59170;BME280;52474;52.236;5.114;2023-01-30T01:12:05;101638.34;;;6.68;100.00
59170;BME280;52474;52.236;5.114;2023-01-30T01:14:31;101624.16;;;6.71;100.00
59170;BME280;52474;52.236;5.114;2023-01-30T01:16:58;101629.41;;;6.71;100.00
59170;BME280;52474;52.236;5.114;2023-01-30T01:19:25;101621.00;;;6.64;100.00
59170;BME280;52474;52.236;5.114;2023-01-30T01:21:51;101624.22;;;6.69;100.00
59170;BME280;52474;52.236;5.114;2023-01-30T01:24:16;101625.09;;;6.70;100.00
59170;BME280;52474;52.236;5.114;2023-01-30T01:26:42;101618.97;;;6.69;100.00
59170;BME280;52474;52.236;5.114;2023-01-30T01:29:14;101619.22;;;6.64;100.00
59170;BME280;52474;52.236;5.114;2023-01-30T01:31:41;101623.31;;;6.70;100.00
59170;BME280;52474;52.236;5.114;2023-01-30T01:34:08;101625.44;;;6.63;100.00
59170;BME280;52474;52.236;5.114;2023-01-30T01:36:34;101624.66;;;6.61;100.00
59170;BME280;52474;52.236;5.114;2023-01-30T01:39:00;101621.53;;;6.55;100.00
59170;BME280;52474;52.236;5.114;2023-01-30T01:41:28;101617.19;;;6.54;100.00
59170;BME280;52474;52.236;5.114;2023-01-30T01:44:11;101633.69;;;6.57;100.00
59170;BME280;52474;52.236;5.114;2023-01-30T01:46:57;101627.72;;;6.54;100.00
59170;BME280;52474;52.236;5.114;2023-01-30T01:49:27;101610.84;;;6.42;100.00
59170;BME280;52474;52.236;5.114;2023-01-30T01:54:45;101619.41;;;6.45;100.00
59170;BME280;52474;52.236;5.114;2023-01-30T02:02:41;101622.56;;;6.36;100.00
59170;BME280;52474;52.236;5.114;2023-01-30T02:05:10;101614.72;;;6.35;100.00
59170;BME280;52474;52.236;5.114;2023-01-30T02:10:07;101618.91;;;6.39;100.00
59170;BME280;52474;52.236;5.114;2023-01-30T02:12:36;101621.72;;;6.36;100.00
59170;BME280;52474;52.236;5.114;2023-01-30T02:15:03;101618.31;;;6.34;100.00
59170;BME280;52474;52.236;5.114;2023-01-30T02:17:30;101620.00;;;6.35;100.00
59170;BME280;52474;52.236;5.114;2023-01-30T02:20:09;101625.44;;;6.32;100.00
59170;BME280;52474;52.236;5.114;2023-01-30T02:28:56;101617.53;;;6.32;100.00
59170;BME280;52474;52.236;5.114;2023-01-30T02:31:39;101619.41;;;6.30;100.00
59170;BME280;52474;52.236;5.114;2023-01-30T02:39:53;101599.47;;;6.26;100.00
59170;BME280;52474;52.236;5.114;2023-01-30T02:42:33;101606.69;;;6.22;100.00
59170;BME280;52474;52.236;5.114;2023-01-30T02:45:23;101597.50;;;6.29;100.00
59170;BME280;52474;52.236;5.114;2023-01-30T02:48:02;101608.81;;;6.31;100.00
59170;BME280;52474;52.236;5.114;2023-01-30T02:50:32;101614.91;;;6.32;100.00
59170;BME280;52474;52.236;5.114;2023-01-30T02:52:59;101601.09;;;6.28;100.00
59170;BME280;52474;52.236;5.114;2023-01-30T02:55:27;101603.03;;;6.24;100.00
59170;BME280;52474;52.236;5.114;2023-01-30T02:57:55;101595.59;;;6.33;100.00
59170;BME280;52474;52.236;5.114;2023-01-30T03:09:18;101579.94;;;6.30;100.00
59170;BME280;52474;52.236;5.114;2023-01-30T03:12:03;101585.47;;;6.41;100.00
59170;BME280;52474;52.236;5.114;2023-01-30T03:14:42;101582.25;;;6.36;100.00
59170;BME280;52474;52.236;5.114;2023-01-30T03:17:10;101578.53;;;6.40;100.00
59170;BME280;52474;52.236;5.114;2023-01-30T03:19:37;101563.00;;;6.35;100.00
59170;BME280;52474;52.236;5.114;2023-01-30T03:22:04;101572.31;;;6.41;100.00
59170;BME280;52474;52.236;5.114;2023-01-30T03:24:29;101574.44;;;6.50;100.00
59170;BME280;52474;52.236;5.114;2023-01-30T03:27:04;101580.63;;;6.49;100.00
59170;BME280;52474;52.236;5.114;2023-01-30T03:29:33;101571.81;;;6.50;100.00
59170;BME280;52474;52.236;5.114;2023-01-30T03:31:59;101573.41;;;6.53;100.00
59170;BME280;52474;52.236;5.114;2023-01-30T03:34:25;101563.16;;;6.48;100.00
59170;BME280;52474;52.236;5.114;2023-01-30T03:36:51;101545.94;;;6.42;100.00
59170;BME280;52474;52.236;5.114;2023-01-30T03:39:16;101580.34;;;6.54;100.00
59170;BME280;52474;52.236;5.114;2023-01-30T03:41:43;101578.50;;;6.56;100.00
59170;BME280;52474;52.236;5.114;2023-01-30T03:44:09;101573.31;;;6.54;100.00
59170;BME280;52474;52.236;5.114;2023-01-30T03:46:34;101560.84;;;6.58;100.00
59170;BME280;52474;52.236;5.114;2023-01-30T03:49:00;101561.88;;;6.55;100.00
59170;BME280;52474;52.236;5.114;2023-01-30T03:51:26;101567.53;;;6.63;100.00
59170;BME280;52474;52.236;5.114;2023-01-30T03:53:51;101563.47;;;6.58;100.00
59170;BME280;52474;52.236;5.114;2023-01-30T03:56:17;101564.25;;;6.60;100.00
59170;BME280;52474;52.236;5.114;2023-01-30T03:58:43;101556.84;;;6.51;100.00
59170;BME280;52474;52.236;5.114;2023-01-30T04:01:18;101562.53;;;6.59;100.00
59170;BME280;52474;52.236;5.114;2023-01-30T04:03:44;101570.91;;;6.65;100.00
59170;BME280;52474;52.236;5.114;2023-01-30T04:06:11;101564.31;;;6.58;100.00
59170;BME280;52474;52.236;5.114;2023-01-30T04:08:37;101576.19;;;6.65;100.00
59170;BME280;52474;52.236;5.114;2023-01-30T04:11:04;101570.84;;;6.67;100.00
59170;BME280;52474;52.236;5.114;2023-01-30T04:13:29;101572.53;;;6.68;100.00
59170;BME280;52474;52.236;5.114;2023-01-30T04:16:18;101576.00;;;6.69;100.00
59170;BME280;52474;52.236;5.114;2023-01-30T04:19:02;101580.59;;;6.65;100.00
59170;BME280;52474;52.236;5.114;2023-01-30T04:21:31;101569.66;;;6.57;100.00
59170;BME280;52474;52.236;5.114;2023-01-30T04:23:57;101571.69;;;6.52;100.00
59170;BME280;52474;52.236;5.114;2023-01-30T04:26:22;101570.41;;;6.59;100.00
59170;BME280;52474;52.236;5.114;2023-01-30T04:28:48;101571.44;;;6.56;100.00
59170;BME280;52474;52.236;5.114;2023-01-30T04:31:14;101570.41;;;6.59;100.00
59170;BME280;52474;52.236;5.114;2023-01-30T04:33:54;101585.63;;;6.70;100.00
59170;BME280;52474;52.236;5.114;2023-01-30T04:36:20;101593.84;;;6.79;100.00
59170;BME280;52474;52.236;5.114;2023-01-30T04:38:46;101581.59;;;6.78;100.00
59170;BME280;52474;52.236;5.114;2023-01-30T04:41:11;101587.88;;;6.76;100.00
59170;BME280;52474;52.236;5.114;2023-01-30T04:43:40;101585.50;;;6.71;100.00
59170;BME280;52474;52.236;5.114;2023-01-30T04:46:24;101567.59;;;6.62;100.00
59170;BME280;52474;52.236;5.114;2023-01-30T04:48:50;101561.75;;;6.57;100.00
59170;BME280;52474;52.236;5.114;2023-01-30T04:51:16;101586.47;;;6.70;100.00
59170;BME280;52474;52.236;5.114;2023-01-30T04:53:42;101573.94;;;6.74;100.00
59170;BME280;52474;52.236;5.114;2023-01-30T04:56:08;101566.16;;;6.72;100.00
59170;BME280;52474;52.236;5.114;2023-01-30T04:58:34;101574.13;;;6.71;100.00
59170;BME280;52474;52.236;5.114;2023-01-30T05:01:36;101582.81;;;6.73;100.00
59170;BME280;52474;52.236;5.114;2023-01-30T05:04:00;101571.44;;;6.72;100.00
59170;BME280;52474;52.236;5.114;2023-01-30T05:06:27;101583.19;;;6.81;100.00
59170;BME280;52474;52.236;5.114;2023-01-30T05:08:55;101577.53;;;6.73;100.00
59170;BME280;52474;52.236;5.114;2023-01-30T05:11:22;101579.91;;;6.77;100.00
59170;BME280;52474;52.236;5.114;2023-01-30T05:13:48;101578.13;;;6.62;100.00
59170;BME280;52474;52.236;5.114;2023-01-30T05:16:15;101594.34;;;6.70;100.00
59170;BME280;52474;52.236;5.114;2023-01-30T05:18:41;101587.56;;;6.66;100.00
59170;BME280;52474;52.236;5.114;2023-01-30T05:21:10;101592.69;;;6.53;100.00
59170;BME280;52474;52.236;5.114;2023-01-30T05:23:36;101582.66;;;6.44;100.00
59170;BME280;52474;52.236;5.114;2023-01-30T05:26:02;101590.81;;;6.39;100.00
59170;BME280;52474;52.236;5.114;2023-01-30T05:28:29;101589.44;;;6.32;100.00
59170;BME280;52474;52.236;5.114;2023-01-30T05:31:05;101598.03;;;6.36;100.00
59170;BME280;52474;52.236;5.114;2023-01-30T05:33:31;101579.09;;;6.29;100.00
59170;BME280;52474;52.236;5.114;2023-01-30T05:35:58;101595.97;;;6.25;100.00
59170;BME280;52474;52.236;5.114;2023-01-30T05:38:24;101593.69;;;6.19;100.00
59170;BME280;52474;52.236;5.114;2023-01-30T05:41:01;101606.84;;;6.03;100.00
59170;BME280;52474;52.236;5.114;2023-01-30T05:43:28;101602.50;;;6.02;100.00
59170;BME280;52474;52.236;5.114;2023-01-30T05:45:55;101599.34;;;5.95;100.00
59170;BME280;52474;52.236;5.114;2023-01-30T05:48:22;101605.00;;;5.88;100.00
59170;BME280;52474;52.236;5.114;2023-01-30T05:50:52;101584.97;;;5.69;100.00
59170;BME280;52474;52.236;5.114;2023-01-30T05:53:19;101597.09;;;5.72;100.00
59170;BME280;52474;52.236;5.114;2023-01-30T05:55:45;101597.13;;;5.54;100.00
59170;BME280;52474;52.236;5.114;2023-01-30T05:58:11;101586.16;;;5.46;100.00
59170;BME280;52474;52.236;5.114;2023-01-30T06:00:37;101581.00;;;5.45;100.00
59170;BME280;52474;52.236;5.114;2023-01-30T06:03:03;101586.91;;;5.48;100.00
59170;BME280;52474;52.236;5.114;2023-01-30T06:05:28;101613.28;;;5.47;100.00
59170;BME280;52474;52.236;5.114;2023-01-30T06:07:54;101589.03;;;5.42;100.00
59170;BME280;52474;52.236;5.114;2023-01-30T06:10:20;101595.66;;;5.49;100.00
59170;BME280;52474;52.236;5.114;2023-01-30T06:12:46;101592.19;;;5.48;100.00
59170;BME280;52474;52.236;5.114;2023-01-30T06:15:11;101603.94;;;5.41;100.00
59170;BME280;52474;52.236;5.114;2023-01-30T06:17:41;101624.47;;;5.50;100.00
59170;BME280;52474;52.236;5.114;2023-01-30T06:20:09;101624.72;;;5.46;100.00
59170;BME280;52474;52.236;5.114;2023-01-30T06:22:35;101621.19;;;5.29;100.00
59170;BME280;52474;52.236;5.114;2023-01-30T06:25:01;101612.91;;;5.37;100.00
59170;BME280;52474;52.236;5.114;2023-01-30T06:27:28;101610.75;;;5.28;100.00
59170;BME280;52474;52.236;5.114;2023-01-30T06:29:53;101608.56;;;5.19;100.00
59170;BME280;52474;52.236;5.114;2023-01-30T06:32:19;101615.63;;;5.18;100.00
59170;BME280;52474;52.236;5.114;2023-01-30T06:34:44;101609.34;;;5.21;100.00
59170;BME280;52474;52.236;5.114;2023-01-30T06:37:10;101595.91;;;5.09;100.00
59170;BME280;52474;52.236;5.114;2023-01-30T06:39:36;101600.63;;;5.20;100.00
59170;BME280;52474;52.236;5.114;2023-01-30T06:42:01;101595.94;;;5.27;100.00
59170;BME280;52474;52.236;5.114;2023-01-30T06:44:27;101602.53;;;5.34;100.00
59170;BME280;52474;52.236;5.114;2023-01-30T06:46:53;101598.25;;;5.15;100.00
59170;BME280;52474;52.236;5.114;2023-01-30T06:49:18;101609.41;;;5.19;100.00
59170;BME280;52474;52.236;5.114;2023-01-30T06:51:44;101607.97;;;5.13;100.00
59170;BME280;52474;52.236;5.114;2023-01-30T06:54:10;101618.78;;;5.07;100.00
59170;BME280;52474;52.236;5.114;2023-01-30T06:56:35;101616.00;;;5.10;100.00
59170;BME280;52474;52.236;5.114;2023-01-30T06:59:01;101635.63;;;5.21;100.00
59170;BME280;52474;52.236;5.114;2023-01-30T07:01:26;101640.56;;;5.27;100.00
59170;BME280;52474;52.236;5.114;2023-01-30T07:03:52;101632.31;;;5.17;100.00
59170;BME280;52474;52.236;5.114;2023-01-30T07:06:18;101642.88;;;5.15;100.00
59170;BME280;52474;52.236;5.114;2023-01-30T07:08:44;101620.69;;;5.04;100.00
59170;BME280;52474;52.236;5.114;2023-01-30T07:11:10;101632.31;;;5.00;100.00
59170;BME280;52474;52.236;5.114;2023-01-30T07:13:36;101652.13;;;5.05;100.00
59170;BME280;52474;52.236;5.114;2023-01-30T07:16:01;101671.38;;;5.06;100.00
59170;BME280;52474;52.236;5.114;2023-01-30T07:18:27;101668.13;;;5.01;100.00
59170;BME280;52474;52.236;5.114;2023-01-30T07:20:53;101673.38;;;5.01;100.00
59170;BME280;52474;52.236;5.114;2023-01-30T07:23:19;101657.69;;;4.99;100.00
59170;BME280;52474;52.236;5.114;2023-01-30T07:25:45;101658.84;;;4.93;100.00
59170;BME280;52474;52.236;5.114;2023-01-30T07:28:10;101646.53;;;4.77;100.00
59170;BME280;52474;52.236;5.114;2023-01-30T07:30:36;101661.78;;;4.87;100.00
59170;BME280;52474;52.236;5.114;2023-01-30T07:33:03;101637.88;;;4.74;100.00
59170;BME280;52474;52.236;5.114;2023-01-30T07:35:32;101669.06;;;5.00;100.00
59170;BME280;52474;52.236;5.114;2023-01-30T07:37:58;101660.31;;;4.99;100.00
59170;BME280;52474;52.236;5.114;2023-01-30T07:40:24;101665.66;;;4.98;100.00
59170;BME280;52474;52.236;5.114;2023-01-30T07:43:03;101664.88;;;5.13;100.00
59170;BME280;52474;52.236;5.114;2023-01-30T07:45:43;101654.06;;;5.19;100.00
59170;BME280;52474;52.236;5.114;2023-01-30T07:48:11;101644.88;;;5.10;100.00
59170;BME280;52474;52.236;5.114;2023-01-30T07:50:38;101673.38;;;5.18;100.00
59170;BME280;52474;52.236;5.114;2023-01-30T07:53:05;101672.00;;;5.28;100.00
59170;BME280;52474;52.236;5.114;2023-01-30T07:55:31;101673.78;;;5.28;100.00
59170;BME280;52474;52.236;5.114;2023-01-30T07:57:57;101675.78;;;5.23;100.00
59170;BME280;52474;52.236;5.114;2023-01-30T08:00:23;101673.16;;;5.23;100.00
59170;BME280;52474;52.236;5.114;2023-01-30T08:02:49;101653.38;;;5.15;100.00
59170;BME280;52474;52.236;5.114;2023-01-30T08:05:15;101674.00;;;5.23;100.00
59170;BME280;52474;52.236;5.114;2023-01-30T08:07:41;101676.03;;;5.35;100.00
59170;BME280;52474;52.236;5.114;2023-01-30T08:10:07;101678.25;;;5.60;100.00
59170;BME280;52474;52.236;5.114;2023-01-30T08:12:33;101680.34;;;5.71;100.00
59170;BME280;52474;52.236;5.114;2023-01-30T08:14:59;101680.41;;;5.70;100.00
59170;BME280;52474;52.236;5.114;2023-01-30T08:17:25;101693.63;;;5.68;100.00
59170;BME280;52474;52.236;5.114;2023-01-30T08:19:50;101670.38;;;5.60;100.00
59170;BME280;52474;52.236;5.114;2023-01-30T08:22:16;101693.16;;;5.77;100.00
59170;BME280;52474;52.236;5.114;2023-01-30T08:24:42;101690.13;;;5.85;100.00
59170;BME280;52474;52.236;5.114;2023-01-30T08:27:08;101696.88;;;5.91;100.00
59170;BME280;52474;52.236;5.114;2023-01-30T08:29:33;101705.28;;;5.80;100.00
59170;BME280;52474;52.236;5.114;2023-01-30T08:31:59;101705.00;;;5.86;100.00
59170;BME280;52474;52.236;5.114;2023-01-30T08:34:26;101700.81;;;5.82;100.00
59170;BME280;52474;52.236;5.114;2023-01-30T08:36:51;101719.59;;;5.92;100.00
59170;BME280;52474;52.236;5.114;2023-01-30T08:39:17;101733.53;;;5.94;100.00
59170;BME280;52474;52.236;5.114;2023-01-30T08:41:43;101740.47;;;5.95;100.00
59170;BME280;52474;52.236;5.114;2023-01-30T08:44:09;101735.06;;;5.98;100.00
59170;BME280;52474;52.236;5.114;2023-01-30T08:46:36;101740.25;;;5.99;100.00
59170;BME280;52474;52.236;5.114;2023-01-30T08:49:03;101737.69;;;5.98;100.00
59170;BME280;52474;52.236;5.114;2023-01-30T08:51:29;101730.56;;;6.00;100.00
59170;BME280;52474;52.236;5.114;2023-01-30T08:53:54;101739.25;;;6.02;100.00
59170;BME280;52474;52.236;5.114;2023-01-30T08:56:20;101734.81;;;6.02;100.00
59170;BME280;52474;52.236;5.114;2023-01-30T08:58:45;101731.28;;;6.04;100.00
59170;BME280;52474;52.236;5.114;2023-01-30T09:01:14;101747.34;;;6.15;100.00
59170;BME280;52474;52.236;5.114;2023-01-30T09:03:40;101761.78;;;6.23;100.00
59170;BME280;52474;52.236;5.114;2023-01-30T09:06:07;101738.66;;;6.30;100.00
59170;BME280;52474;52.236;5.114;2023-01-30T09:08:33;101748.78;;;6.38;100.00
59170;BME280;52474;52.236;5.114;2023-01-30T09:11:00;101754.03;;;6.38;100.00
59170;BME280;52474;52.236;5.114;2023-01-30T09:13:27;101758.53;;;6.52;100.00
59170;BME280;52474;52.236;5.114;2023-01-30T09:15:53;101760.84;;;6.58;100.00
59170;BME280;52474;52.236;5.114;2023-01-30T09:18:19;101771.31;;;6.75;100.00
59170;BME280;52474;52.236;5.114;2023-01-30T09:20:45;101757.97;;;6.78;100.00
59170;BME280;52474;52.236;5.114;2023-01-30T09:23:10;101773.53;;;6.83;100.00
59170;BME280;52474;52.236;5.114;2023-01-30T09:25:36;101767.84;;;6.75;100.00
59170;BME280;52474;52.236;5.114;2023-01-30T09:28:02;101759.03;;;6.92;100.00
59170;BME280;52474;52.236;5.114;2023-01-30T09:30:28;101774.88;;;7.06;100.00
59170;BME280;52474;52.236;5.114;2023-01-30T09:32:54;101761.91;;;7.03;100.00
59170;BME280;52474;52.236;5.114;2023-01-30T09:35:19;101779.81;;;6.96;100.00
59170;BME280;52474;52.236;5.114;2023-01-30T09:37:49;101791.59;;;6.89;100.00
59170;BME280;52474;52.236;5.114;2023-01-30T09:40:16;101794.09;;;6.92;100.00
59170;BME280;52474;52.236;5.114;2023-01-30T09:46:06;101805.00;;;6.69;100.00
59170;BME280;52474;52.236;5.114;2023-01-30T09:49:10;101800.53;;;6.71;100.00
59170;BME280;52474;52.236;5.114;2023-01-30T09:51:38;101817.50;;;6.65;100.00
59170;BME280;52474;52.236;5.114;2023-01-30T09:54:16;101805.97;;;6.68;100.00
59170;BME280;52474;52.236;5.114;2023-01-30T09:56:55;101811.28;;;6.66;100.00
59170;BME280;52474;52.236;5.114;2023-01-30T09:59:26;101818.19;;;6.69;100.00
59170;BME280;52474;52.236;5.114;2023-01-30T10:04:33;101809.78;;;6.78;100.00
59170;BME280;52474;52.236;5.114;2023-01-30T10:15:27;101835.28;;;6.93;100.00
59170;BME280;52474;52.236;5.114;2023-01-30T10:18:32;101829.69;;;6.99;100.00
59170;BME280;52474;52.236;5.114;2023-01-30T10:26:39;101845.63;;;6.80;100.00
59170;BME280;52474;52.236;5.114;2023-01-30T10:29:19;101848.81;;;6.87;100.00
59170;BME280;52474;52.236;5.114;2023-01-30T10:31:49;101856.47;;;6.92;100.00
59170;BME280;52474;52.236;5.114;2023-01-30T10:34:26;101875.28;;;6.84;100.00
59170;BME280;52474;52.236;5.114;2023-01-30T10:39:50;101865.63;;;6.84;100.00
59170;BME280;52474;52.236;5.114;2023-01-30T10:42:25;101874.53;;;6.98;100.00
59170;BME280;52474;52.236;5.114;2023-01-30T10:44:58;101857.56;;;7.03;100.00
59170;BME280;52474;52.236;5.114;2023-01-30T10:48:05;101867.69;;;7.27;100.00
59170;BME280;52474;52.236;5.114;2023-01-30T10:50:56;101834.63;;;14.59;100.00
59170;BME280;52474;52.236;5.114;2023-01-30T10:56:11;101844.47;;;11.58;100.00
59170;BME280;52474;52.236;5.114;2023-01-30T11:01:30;101838.97;;;13.98;100.00
59170;BME280;52474;52.236;5.114;2023-01-30T11:04:10;101831.78;;;14.82;100.00
59170;BME280;52474;52.236;5.114;2023-01-30T11:06:37;101838.38;;;17.55;100.00
59170;BME280;52474;52.236;5.114;2023-01-30T11:09:03;101846.47;;;12.49;100.00
59170;BME280;52474;52.236;5.114;2023-01-30T11:11:34;101823.22;;;14.06;100.00
59170;BME280;52474;52.236;5.114;2023-01-30T11:14:08;101852.91;;;11.15;100.00
59170;BME280;52474;52.236;5.114;2023-01-30T11:19:15;101842.63;;;9.95;100.00
59170;BME280;52474;52.236;5.114;2023-01-30T11:21:49;101845.75;;;9.75;100.00
59170;BME280;52474;52.236;5.114;2023-01-30T11:24:43;101843.03;;;9.35;100.00
59170;BME280;52474;52.236;5.114;2023-01-30T11:27:16;101853.59;;;9.35;100.00
59170;BME280;52474;52.236;5.114;2023-01-30T11:29:42;101849.19;;;9.62;100.00
59170;BME280;52474;52.236;5.114;2023-01-30T11:32:14;101843.59;;;13.63;100.00
59170;BME280;52474;52.236;5.114;2023-01-30T11:35:50;101856.53;;;12.91;100.00
59170;BME280;52474;52.236;5.114;2023-01-30T11:37:45;101857.00;;;12.62;100.00
59170;BME280;52474;52.236;5.114;2023-01-30T11:42:43;101847.53;;;15.64;100.00
59170;BME280;52474;52.236;5.114;2023-01-30T11:45:10;101857.47;;;13.23;100.00
59170;BME280;52474;52.236;5.114;2023-01-30T11:47:38;101860.34;;;13.54;100.00
59170;BME280;52474;52.236;5.114;2023-01-30T11:50:16;101855.44;;;16.81;100.00
59170;BME280;52474;52.236;5.114;2023-01-30T11:52:44;101859.59;;;12.17;100.00
59170;BME280;52474;52.236;5.114;2023-01-30T11:55:15;101859.88;;;10.53;100.00
59170;BME280;52474;52.236;5.114;2023-01-30T11:57:47;101843.81;;;11.06;100.00
59170;BME280;52474;52.236;5.114;2023-01-30T12:00:18;101863.84;;;11.95;100.00
59170;BME280;52474;52.236;5.114;2023-01-30T12:02:45;101863.75;;;12.55;100.00
59170;BME280;52474;52.236;5.114;2023-01-30T12:05:25;101873.66;;;11.82;100.00
59170;BME280;52474;52.236;5.114;2023-01-30T12:08:11;101844.13;;;12.22;100.00
59170;BME280;52474;52.236;5.114;2023-01-30T12:10:43;101840.81;;;13.10;100.00
59170;BME280;52474;52.236;5.114;2023-01-30T12:13:32;101853.28;;;13.96;100.00
59170;BME280;52474;52.236;5.114;2023-01-30T12:16:05;101874.09;;;12.35;100.00
59170;BME280;52474;52.236;5.114;2023-01-30T12:19:00;101886.09;;;9.64;100.00
59170;BME280;52474;52.236;5.114;2023-01-30T12:25:00;101880.81;;;8.51;100.00
59170;BME280;52474;52.236;5.114;2023-01-30T12:30:30;101909.22;;;8.47;100.00
59170;BME280;52474;52.236;5.114;2023-01-30T12:33:00;101886.28;;;8.48;100.00
59170;BME280;52474;52.236;5.114;2023-01-30T12:36:10;101871.13;;;8.21;100.00
59170;BME280;52474;52.236;5.114;2023-01-30T12:44:18;101904.97;;;7.99;100.00
59170;BME280;52474;52.236;5.114;2023-01-30T12:52:32;101900.78;;;7.94;100.00
59170;BME280;52474;52.236;5.114;2023-01-30T12:55:35;101892.56;;;8.01;100.00
59170;BME280;52474;52.236;5.114;2023-01-30T12:58:22;101900.66;;;7.82;100.00
59170;BME280;52474;52.236;5.114;2023-01-30T13:01:15;101923.03;;;7.74;100.00
59170;BME280;52474;52.236;5.114;2023-01-30T13:10:16;101914.19;;;7.60;100.00
59170;BME280;52474;52.236;5.114;2023-01-30T13:17:54;101925.00;;;7.71;100.00
59170;BME280;52474;52.236;5.114;2023-01-30T13:25:55;101943.22;;;7.76;100.00
59170;BME280;52474;52.236;5.114;2023-01-30T13:28:49;101940.22;;;7.66;100.00
59170;BME280;52474;52.236;5.114;2023-01-30T13:31:20;101950.59;;;7.69;100.00
59170;BME280;52474;52.236;5.114;2023-01-30T13:33:49;101947.59;;;7.75;100.00
59170;BME280;52474;52.236;5.114;2023-01-30T13:36:36;101930.97;;;7.59;100.00
59170;BME280;52474;52.236;5.114;2023-01-30T13:39:17;101939.28;;;7.67;100.00
59170;BME280;52474;52.236;5.114;2023-01-30T13:41:52;101943.00;;;7.94;100.00
59170;BME280;52474;52.236;5.114;2023-01-30T13:44:28;101956.03;;;7.98;100.00
59170;BME280;52474;52.236;5.114;2023-01-30T13:46:56;101954.34;;;7.81;100.00
59170;BME280;52474;52.236;5.114;2023-01-30T13:49:35;101962.25;;;7.81;100.00
59170;BME280;52474;52.236;5.114;2023-01-30T13:55:22;101963.03;;;7.83;100.00
59170;BME280;52474;52.236;5.114;2023-01-30T13:58:16;101976.59;;;8.07;100.00
59170;BME280;52474;52.236;5.114;2023-01-30T14:00:54;101984.63;;;7.89;100.00
59170;BME280;52474;52.236;5.114;2023-01-30T14:03:26;101979.34;;;7.73;100.00
59170;BME280;52474;52.236;5.114;2023-01-30T14:14:00;102012.22;;;7.50;100.00
59170;BME280;52474;52.236;5.114;2023-01-30T14:16:45;102019.53;;;7.45;100.00
59170;BME280;52474;52.236;5.114;2023-01-30T14:21:54;102026.06;;;7.38;100.00
59170;BME280;52474;52.236;5.114;2023-01-30T14:24:21;102031.44;;;7.37;100.00
59170;BME280;52474;52.236;5.114;2023-01-30T14:34:47;102054.13;;;7.39;100.00
59170;BME280;52474;52.236;5.114;2023-01-30T14:40:01;102066.31;;;7.42;100.00
59170;BME280;52474;52.236;5.114;2023-01-30T14:42:29;102076.00;;;7.41;100.00
59170;BME280;52474;52.236;5.114;2023-01-30T14:45:14;102081.09;;;7.44;100.00
59170;BME280;52474;52.236;5.114;2023-01-30T14:47:40;102076.84;;;7.42;100.00
59170;BME280;52474;52.236;5.114;2023-01-30T14:50:18;102092.66;;;7.42;100.00
59170;BME280;52474;52.236;5.114;2023-01-30T14:52:45;102094.13;;;7.30;100.00
59170;BME280;52474;52.236;5.114;2023-01-30T14:55:20;102093.13;;;7.32;100.00
59170;BME280;52474;52.236;5.114;2023-01-30T14:57:56;102098.16;;;7.37;100.00
59170;BME280;52474;52.236;5.114;2023-01-30T15:00:28;102119.31;;;7.36;100.00
59170;BME280;52474;52.236;5.114;2023-01-30T15:03:13;102116.94;;;7.31;100.00
59170;BME280;52474;52.236;5.114;2023-01-30T15:05:43;102124.69;;;7.34;100.00
59170;BME280;52474;52.236;5.114;2023-01-30T15:08:20;102127.56;;;7.29;100.00
59170;BME280;52474;52.236;5.114;2023-01-30T15:11:13;102132.88;;;7.28;100.00